sensor_id;sensor_type;location;lat;lon;timestamp;temperature;humidity
18733;DHT22;9495;51.210;2.934;2022-09-02T00:00:25;20.10;99.90
18733;DHT22;9495;51.210;2.934;2022-09-02T00:02:54;20.10;99.90
18733;DHT22;9495;51.210;2.934;2022-09-02T00:05:23;20.10;99.90
18733;DHT22;9495;51.210;2.934;2022-09-02T00:07:53;20.10;99.90
18733;DHT22;9495;51.210;2.934;2022-09-02T00:10:22;20.10;99.90
18733;DHT22;9495;51.210;2.934;2022-09-02T00:12:50;20.00;99.90
18733;DHT22;9495;51.210;2.934;2022-09-02T00:15:19;20.10;99.90
18733;DHT22;9495;51.210;2.934;2022-09-02T00:17:47;20.00;99.90
18733;DHT22;9495;51.210;2.934;2022-09-02T00:20:17;20.00;99.90
18733;DHT22;9495;51.210;2.934;2022-09-02T00:22:45;20.00;99.90
18733;DHT22;9495;51.210;2.934;2022-09-02T00:25:15;20.00;99.90
18733;DHT22;9495;51.210;2.934;2022-09-02T00:27:44;19.90;99.90
18733;DHT22;9495;51.210;2.934;2022-09-02T00:30:13;19.90;99.90
18733;DHT22;9495;51.210;2.934;2022-09-02T00:32:41;19.90;99.90
18733;DHT22;9495;51.210;2.934;2022-09-02T00:35:09;19.90;99.90
18733;DHT22;9495;51.210;2.934;2022-09-02T00:37:38;19.90;99.90
18733;DHT22;9495;51.210;2.934;2022-09-02T00:40:08;19.80;99.90
18733;DHT22;9495;51.210;2.934;2022-09-02T00:42:39;19.80;99.90
18733;DHT22;9495;51.210;2.934;2022-09-02T00:45:09;19.70;99.90
18733;DHT22;9495;51.210;2.934;2022-09-02T00:47:38;19.70;99.90
18733;DHT22;9495;51.210;2.934;2022-09-02T00:50:09;19.60;99.90
18733;DHT22;9495;51.210;2.934;2022-09-02T00:52:40;19.60;99.90
18733;DHT22;9495;51.210;2.934;2022-09-02T00:55:12;19.60;99.90
18733;DHT22;9495;51.210;2.934;2022-09-02T00:57:44;19.60;99.90
18733;DHT22;9495;51.210;2.934;2022-09-02T01:00:15;19.50;99.90
18733;DHT22;9495;51.210;2.934;2022-09-02T01:02:47;19.40;99.90
18733;DHT22;9495;51.210;2.934;2022-09-02T01:05:18;19.40;99.90
18733;DHT22;9495;51.210;2.934;2022-09-02T01:07:47;19.40;99.90
18733;DHT22;9495;51.210;2.934;2022-09-02T01:10:20;19.40;99.90
18733;DHT22;9495;51.210;2.934;2022-09-02T01:12:54;19.40;99.90
18733;DHT22;9495;51.210;2.934;2022-09-02T01:15:23;19.30;99.90
18733;DHT22;9495;51.210;2.934;2022-09-02T01:17:51;19.30;99.90
18733;DHT22;9495;51.210;2.934;2022-09-02T01:20:22;19.20;99.90
18733;DHT22;9495;51.210;2.934;2022-09-02T01:22:54;19.20;99.90
18733;DHT22;9495;51.210;2.934;2022-09-02T01:25:27;19.20;99.90
18733;DHT22;9495;51.210;2.934;2022-09-02T01:27:59;19.10;99.90
18733;DHT22;9495;51.210;2.934;2022-09-02T01:30:28;19.10;99.90
18733;DHT22;9495;51.210;2.934;2022-09-02T01:32:56;19.10;99.90
18733;DHT22;9495;51.210;2.934;2022-09-02T01:35:25;19.10;99.90
18733;DHT22;9495;51.210;2.934;2022-09-02T01:37:56;19.10;99.90
18733;DHT22;9495;51.210;2.934;2022-09-02T01:40:26;19.10;99.90
18733;DHT22;9495;51.210;2.934;2022-09-02T01:42:57;19.10;99.90
18733;DHT22;9495;51.210;2.934;2022-09-02T01:45:26;19.10;99.90
18733;DHT22;9495;51.210;2.934;2022-09-02T01:47:55;19.20;99.90
18733;DHT22;9495;51.210;2.934;2022-09-02T01:50:24;19.10;99.90
18733;DHT22;9495;51.210;2.934;2022-09-02T01:52:52;19.10;99.90
18733;DHT22;9495;51.210;2.934;2022-09-02T01:55:21;19.10;99.90
18733;DHT22;9495;51.210;2.934;2022-09-02T01:57:50;19.00;99.90
18733;DHT22;9495;51.210;2.934;2022-09-02T02:00:18;19.00;99.90
18733;DHT22;9495;51.210;2.934;2022-09-02T02:02:47;19.00;99.90
18733;DHT22;9495;51.210;2.934;2022-09-02T02:05:15;19.00;99.90
18733;DHT22;9495;51.210;2.934;2022-09-02T02:07:44;19.00;99.90
18733;DHT22;9495;51.210;2.934;2022-09-02T02:10:14;19.00;99.90
18733;DHT22;9495;51.210;2.934;2022-09-02T02:12:44;19.00;99.90
18733;DHT22;9495;51.210;2.934;2022-09-02T02:15:14;18.90;99.90
18733;DHT22;9495;51.210;2.934;2022-09-02T02:17:44;19.00;99.90
18733;DHT22;9495;51.210;2.934;2022-09-02T02:20:16;18.90;99.90
18733;DHT22;9495;51.210;2.934;2022-09-02T02:22:44;18.90;99.90
18733;DHT22;9495;51.210;2.934;2022-09-02T02:25:13;18.90;99.90
18733;DHT22;9495;51.210;2.934;2022-09-02T02:27:43;18.90;99.90
18733;DHT22;9495;51.210;2.934;2022-09-02T02:30:13;18.90;99.90
18733;DHT22;9495;51.210;2.934;2022-09-02T02:32:43;18.90;99.90
18733;DHT22;9495;51.210;2.934;2022-09-02T02:35:13;18.90;99.90
18733;DHT22;9495;51.210;2.934;2022-09-02T02:37:42;18.80;99.90
18733;DHT22;9495;51.210;2.934;2022-09-02T02:40:11;18.90;99.90
18733;DHT22;9495;51.210;2.934;2022-09-02T02:42:39;18.80;99.90
18733;DHT22;9495;51.210;2.934;2022-09-02T02:45:10;18.80;99.90
18733;DHT22;9495;51.210;2.934;2022-09-02T02:47:42;18.70;99.90
18733;DHT22;9495;51.210;2.934;2022-09-02T02:50:14;18.70;99.90
18733;DHT22;9495;51.210;2.934;2022-09-02T02:52:42;18.70;99.90
18733;DHT22;9495;51.210;2.934;2022-09-02T02:55:12;18.70;99.90
18733;DHT22;9495;51.210;2.934;2022-09-02T02:57:42;18.60;99.90
18733;DHT22;9495;51.210;2.934;2022-09-02T03:00:14;18.60;99.90
18733;DHT22;9495;51.210;2.934;2022-09-02T03:02:43;18.60;99.90
18733;DHT22;9495;51.210;2.934;2022-09-02T03:05:12;18.50;99.90
18733;DHT22;9495;51.210;2.934;2022-09-02T03:07:41;18.50;99.90
18733;DHT22;9495;51.210;2.934;2022-09-02T03:10:12;18.50;99.90
18733;DHT22;9495;51.210;2.934;2022-09-02T03:12:40;18.50;99.90
18733;DHT22;9495;51.210;2.934;2022-09-02T03:15:15;18.50;99.90
18733;DHT22;9495;51.210;2.934;2022-09-02T03:17:44;18.40;99.90
18733;DHT22;9495;51.210;2.934;2022-09-02T03:20:14;18.40;99.90
18733;DHT22;9495;51.210;2.934;2022-09-02T03:22:43;18.30;99.90
18733;DHT22;9495;51.210;2.934;2022-09-02T03:25:15;18.30;99.90
18733;DHT22;9495;51.210;2.934;2022-09-02T03:27:45;18.30;99.90
18733;DHT22;9495;51.210;2.934;2022-09-02T03:30:17;18.30;99.90
18733;DHT22;9495;51.210;2.934;2022-09-02T03:32:45;18.30;99.90
18733;DHT22;9495;51.210;2.934;2022-09-02T03:35:16;18.30;99.90
18733;DHT22;9495;51.210;2.934;2022-09-02T03:37:46;18.30;99.90
18733;DHT22;9495;51.210;2.934;2022-09-02T03:40:16;18.20;99.90
18733;DHT22;9495;51.210;2.934;2022-09-02T03:42:46;18.20;99.90
18733;DHT22;9495;51.210;2.934;2022-09-02T03:45:16;18.20;99.90
18733;DHT22;9495;51.210;2.934;2022-09-02T03:47:45;18.20;99.90
18733;DHT22;9495;51.210;2.934;2022-09-02T03:50:17;18.20;99.90
18733;DHT22;9495;51.210;2.934;2022-09-02T03:52:46;18.20;99.90
18733;DHT22;9495;51.210;2.934;2022-09-02T03:55:14;18.20;99.90
18733;DHT22;9495;51.210;2.934;2022-09-02T03:57:44;18.10;99.90
18733;DHT22;9495;51.210;2.934;2022-09-02T04:00:14;18.10;99.90
18733;DHT22;9495;51.210;2.934;2022-09-02T04:02:44;18.10;99.90
18733;DHT22;9495;51.210;2.934;2022-09-02T04:05:16;18.10;99.90
18733;DHT22;9495;51.210;2.934;2022-09-02T04:07:44;18.00;99.90
18733;DHT22;9495;51.210;2.934;2022-09-02T04:10:13;18.00;99.90
18733;DHT22;9495;51.210;2.934;2022-09-02T04:12:41;18.00;99.90
18733;DHT22;9495;51.210;2.934;2022-09-02T04:15:11;17.90;99.90
18733;DHT22;9495;51.210;2.934;2022-09-02T04:17:40;17.90;99.90
18733;DHT22;9495;51.210;2.934;2022-09-02T04:20:11;17.90;99.90
18733;DHT22;9495;51.210;2.934;2022-09-02T04:22:40;17.90;99.90
18733;DHT22;9495;51.210;2.934;2022-09-02T04:25:08;17.80;99.90
18733;DHT22;9495;51.210;2.934;2022-09-02T04:27:37;17.80;99.90
18733;DHT22;9495;51.210;2.934;2022-09-02T04:30:06;17.80;99.90
18733;DHT22;9495;51.210;2.934;2022-09-02T04:32:35;17.80;99.90
18733;DHT22;9495;51.210;2.934;2022-09-02T04:35:07;17.80;99.90
18733;DHT22;9495;51.210;2.934;2022-09-02T04:37:37;17.80;99.90
18733;DHT22;9495;51.210;2.934;2022-09-02T04:40:06;17.80;99.90
18733;DHT22;9495;51.210;2.934;2022-09-02T04:42:34;17.80;99.90
18733;DHT22;9495;51.210;2.934;2022-09-02T04:45:05;17.80;99.90
18733;DHT22;9495;51.210;2.934;2022-09-02T04:47:33;17.80;99.90
18733;DHT22;9495;51.210;2.934;2022-09-02T04:50:02;17.80;99.90
18733;DHT22;9495;51.210;2.934;2022-09-02T04:52:31;17.80;99.90
18733;DHT22;9495;51.210;2.934;2022-09-02T04:55:01;17.80;99.90
18733;DHT22;9495;51.210;2.934;2022-09-02T04:57:30;17.80;99.90
18733;DHT22;9495;51.210;2.934;2022-09-02T04:59:58;17.80;99.90
18733;DHT22;9495;51.210;2.934;2022-09-02T05:02:27;17.80;99.90
18733;DHT22;9495;51.210;2.934;2022-09-02T05:04:55;17.70;99.90
18733;DHT22;9495;51.210;2.934;2022-09-02T05:07:24;17.70;99.90
18733;DHT22;9495;51.210;2.934;2022-09-02T05:09:55;17.70;99.90
18733;DHT22;9495;51.210;2.934;2022-09-02T05:12:25;17.70;99.90
18733;DHT22;9495;51.210;2.934;2022-09-02T05:14:54;17.70;99.90
18733;DHT22;9495;51.210;2.934;2022-09-02T05:17:23;17.60;99.90
18733;DHT22;9495;51.210;2.934;2022-09-02T05:19:52;17.60;99.90
18733;DHT22;9495;51.210;2.934;2022-09-02T05:22:20;17.60;99.90
18733;DHT22;9495;51.210;2.934;2022-09-02T05:24:49;17.60;99.90
18733;DHT22;9495;51.210;2.934;2022-09-02T05:27:18;17.60;99.90
18733;DHT22;9495;51.210;2.934;2022-09-02T05:29:48;17.50;99.90
18733;DHT22;9495;51.210;2.934;2022-09-02T05:32:17;17.50;99.90
18733;DHT22;9495;51.210;2.934;2022-09-02T05:34:45;17.50;99.90
18733;DHT22;9495;51.210;2.934;2022-09-02T05:37:14;17.50;99.90
18733;DHT22;9495;51.210;2.934;2022-09-02T05:39:42;17.50;99.90
18733;DHT22;9495;51.210;2.934;2022-09-02T05:42:11;17.50;99.90
18733;DHT22;9495;51.210;2.934;2022-09-02T05:44:39;17.50;99.90
18733;DHT22;9495;51.210;2.934;2022-09-02T05:47:12;17.60;99.90
18733;DHT22;9495;51.210;2.934;2022-09-02T05:49:40;17.60;99.90
18733;DHT22;9495;51.210;2.934;2022-09-02T05:52:08;17.60;99.90
18733;DHT22;9495;51.210;2.934;2022-09-02T05:54:39;17.60;99.90
18733;DHT22;9495;51.210;2.934;2022-09-02T05:57:09;17.60;99.90
18733;DHT22;9495;51.210;2.934;2022-09-02T05:59:39;17.70;99.90
18733;DHT22;9495;51.210;2.934;2022-09-02T06:02:09;17.70;99.90
18733;DHT22;9495;51.210;2.934;2022-09-02T06:04:39;17.80;99.90
18733;DHT22;9495;51.210;2.934;2022-09-02T06:07:08;17.80;99.90
18733;DHT22;9495;51.210;2.934;2022-09-02T06:09:40;17.80;99.90
18733;DHT22;9495;51.210;2.934;2022-09-02T06:12:11;17.80;99.90
18733;DHT22;9495;51.210;2.934;2022-09-02T06:14:41;17.80;99.90
18733;DHT22;9495;51.210;2.934;2022-09-02T06:17:10;17.80;99.90
18733;DHT22;9495;51.210;2.934;2022-09-02T06:19:40;17.90;99.90
18733;DHT22;9495;51.210;2.934;2022-09-02T06:22:08;17.90;99.90
18733;DHT22;9495;51.210;2.934;2022-09-02T06:24:37;17.90;99.90
18733;DHT22;9495;51.210;2.934;2022-09-02T06:27:06;17.90;99.90
18733;DHT22;9495;51.210;2.934;2022-09-02T06:29:34;18.00;99.90
18733;DHT22;9495;51.210;2.934;2022-09-02T06:32:03;18.00;99.90
18733;DHT22;9495;51.210;2.934;2022-09-02T06:34:31;18.00;99.90
18733;DHT22;9495;51.210;2.934;2022-09-02T06:37:02;18.10;99.90
18733;DHT22;9495;51.210;2.934;2022-09-02T06:39:32;18.20;99.90
18733;DHT22;9495;51.210;2.934;2022-09-02T06:42:04;18.30;99.90
18733;DHT22;9495;51.210;2.934;2022-09-02T06:44:33;18.40;99.90
18733;DHT22;9495;51.210;2.934;2022-09-02T06:47:01;18.40;99.90
18733;DHT22;9495;51.210;2.934;2022-09-02T06:49:29;18.30;99.90
18733;DHT22;9495;51.210;2.934;2022-09-02T06:51:58;18.50;99.90
18733;DHT22;9495;51.210;2.934;2022-09-02T06:54:28;18.60;99.90
18733;DHT22;9495;51.210;2.934;2022-09-02T06:56:57;18.80;99.90
18733;DHT22;9495;51.210;2.934;2022-09-02T06:59:25;18.70;99.90
18733;DHT22;9495;51.210;2.934;2022-09-02T07:01:53;18.70;99.90
18733;DHT22;9495;51.210;2.934;2022-09-02T07:04:22;18.70;99.90
18733;DHT22;9495;51.210;2.934;2022-09-02T07:07:08;18.80;99.90
18733;DHT22;9495;51.210;2.934;2022-09-02T07:09:39;19.00;99.90
18733;DHT22;9495;51.210;2.934;2022-09-02T07:12:07;18.80;99.90
18733;DHT22;9495;51.210;2.934;2022-09-02T07:14:37;18.80;99.90
18733;DHT22;9495;51.210;2.934;2022-09-02T07:17:06;18.90;99.90
18733;DHT22;9495;51.210;2.934;2022-09-02T07:19:35;19.20;99.90
18733;DHT22;9495;51.210;2.934;2022-09-02T07:22:04;19.10;99.90
18733;DHT22;9495;51.210;2.934;2022-09-02T07:24:33;19.10;99.90
18733;DHT22;9495;51.210;2.934;2022-09-02T07:27:02;19.20;99.90
18733;DHT22;9495;51.210;2.934;2022-09-02T07:29:32;19.20;99.90
18733;DHT22;9495;51.210;2.934;2022-09-02T07:32:00;19.20;99.90
18733;DHT22;9495;51.210;2.934;2022-09-02T07:34:29;19.30;99.90
18733;DHT22;9495;51.210;2.934;2022-09-02T07:36:58;19.30;99.90
18733;DHT22;9495;51.210;2.934;2022-09-02T07:39:33;19.40;99.90
18733;DHT22;9495;51.210;2.934;2022-09-02T07:42:03;19.70;99.90
18733;DHT22;9495;51.210;2.934;2022-09-02T07:44:33;19.60;99.90
18733;DHT22;9495;51.210;2.934;2022-09-02T07:47:01;19.60;99.90
18733;DHT22;9495;51.210;2.934;2022-09-02T07:49:30;19.60;99.90
18733;DHT22;9495;51.210;2.934;2022-09-02T07:52:18;19.70;99.90
18733;DHT22;9495;51.210;2.934;2022-09-02T07:54:46;19.80;99.90
18733;DHT22;9495;51.210;2.934;2022-09-02T07:57:16;19.90;99.90
18733;DHT22;9495;51.210;2.934;2022-09-02T07:59:45;20.20;99.90
18733;DHT22;9495;51.210;2.934;2022-09-02T08:02:14;20.10;99.90
18733;DHT22;9495;51.210;2.934;2022-09-02T08:04:44;20.10;99.90
18733;DHT22;9495;51.210;2.934;2022-09-02T08:07:12;20.60;99.90
18733;DHT22;9495;51.210;2.934;2022-09-02T08:09:40;20.50;99.90
18733;DHT22;9495;51.210;2.934;2022-09-02T08:12:09;20.60;99.90
18733;DHT22;9495;51.210;2.934;2022-09-02T08:14:38;21.00;99.90
18733;DHT22;9495;51.210;2.934;2022-09-02T08:17:07;20.90;99.90
18733;DHT22;9495;51.210;2.934;2022-09-02T08:19:35;20.90;99.90
18733;DHT22;9495;51.210;2.934;2022-09-02T08:22:04;20.80;99.90
18733;DHT22;9495;51.210;2.934;2022-09-02T08:24:33;20.80;99.90
18733;DHT22;9495;51.210;2.934;2022-09-02T08:27:01;21.10;99.90
18733;DHT22;9495;51.210;2.934;2022-09-02T08:29:30;21.10;99.90
18733;DHT22;9495;51.210;2.934;2022-09-02T08:32:00;21.00;99.90
18733;DHT22;9495;51.210;2.934;2022-09-02T08:34:29;21.10;99.90
18733;DHT22;9495;51.210;2.934;2022-09-02T08:36:57;21.30;99.90
18733;DHT22;9495;51.210;2.934;2022-09-02T08:39:26;21.30;99.90
18733;DHT22;9495;51.210;2.934;2022-09-02T08:42:02;21.40;99.90
18733;DHT22;9495;51.210;2.934;2022-09-02T08:44:35;21.80;99.90
18733;DHT22;9495;51.210;2.934;2022-09-02T08:47:08;21.80;99.90
18733;DHT22;9495;51.210;2.934;2022-09-02T08:49:41;21.70;99.90
18733;DHT22;9495;51.210;2.934;2022-09-02T08:52:14;21.80;99.90
18733;DHT22;9495;51.210;2.934;2022-09-02T08:54:49;21.80;99.90
18733;DHT22;9495;51.210;2.934;2022-09-02T08:57:19;21.80;99.90
18733;DHT22;9495;51.210;2.934;2022-09-02T08:59:49;21.80;99.90
18733;DHT22;9495;51.210;2.934;2022-09-02T09:02:26;22.00;99.90
18733;DHT22;9495;51.210;2.934;2022-09-02T09:05:07;22.30;99.90
18733;DHT22;9495;51.210;2.934;2022-09-02T09:07:49;22.20;99.90
18733;DHT22;9495;51.210;2.934;2022-09-02T09:10:24;22.30;99.90
18733;DHT22;9495;51.210;2.934;2022-09-02T09:13:03;22.20;99.90
18733;DHT22;9495;51.210;2.934;2022-09-02T09:15:48;22.30;99.90
18733;DHT22;9495;51.210;2.934;2022-09-02T09:18:25;22.40;99.90
18733;DHT22;9495;51.210;2.934;2022-09-02T09:20:56;22.30;99.90
18733;DHT22;9495;51.210;2.934;2022-09-02T09:23:28;22.40;99.90
18733;DHT22;9495;51.210;2.934;2022-09-02T09:26:05;22.40;99.90
18733;DHT22;9495;51.210;2.934;2022-09-02T09:28:39;22.60;99.90
18733;DHT22;9495;51.210;2.934;2022-09-02T09:31:11;22.60;99.90
18733;DHT22;9495;51.210;2.934;2022-09-02T09:33:58;22.50;99.90
18733;DHT22;9495;51.210;2.934;2022-09-02T09:36:46;22.60;99.90
18733;DHT22;9495;51.210;2.934;2022-09-02T09:39:17;22.60;99.90
18733;DHT22;9495;51.210;2.934;2022-09-02T09:41:47;22.70;99.90
18733;DHT22;9495;51.210;2.934;2022-09-02T09:44:34;22.80;99.90
18733;DHT22;9495;51.210;2.934;2022-09-02T09:47:06;22.80;99.90
18733;DHT22;9495;51.210;2.934;2022-09-02T09:49:39;22.80;99.90
18733;DHT22;9495;51.210;2.934;2022-09-02T09:52:07;22.90;99.90
18733;DHT22;9495;51.210;2.934;2022-09-02T09:54:36;22.90;99.90
18733;DHT22;9495;51.210;2.934;2022-09-02T09:57:15;23.10;99.90
18733;DHT22;9495;51.210;2.934;2022-09-02T09:59:48;23.10;99.90
18733;DHT22;9495;51.210;2.934;2022-09-02T10:02:23;23.00;99.90
18733;DHT22;9495;51.210;2.934;2022-09-02T10:04:54;23.10;99.90
18733;DHT22;9495;51.210;2.934;2022-09-02T10:07:38;23.00;99.90
18733;DHT22;9495;51.210;2.934;2022-09-02T10:10:21;23.20;99.90
18733;DHT22;9495;51.210;2.934;2022-09-02T10:12:51;23.30;99.90
18733;DHT22;9495;51.210;2.934;2022-09-02T10:15:27;23.40;99.90
18733;DHT22;9495;51.210;2.934;2022-09-02T10:18:05;23.30;99.90
18733;DHT22;9495;51.210;2.934;2022-09-02T10:20:49;23.40;99.90
18733;DHT22;9495;51.210;2.934;2022-09-02T10:23:44;23.40;99.90
18733;DHT22;9495;51.210;2.934;2022-09-02T10:26:23;23.50;99.90
18733;DHT22;9495;51.210;2.934;2022-09-02T10:29:24;23.50;99.90
18733;DHT22;9495;51.210;2.934;2022-09-02T10:32:09;23.60;99.90
18733;DHT22;9495;51.210;2.934;2022-09-02T10:34:46;23.70;99.90
18733;DHT22;9495;51.210;2.934;2022-09-02T10:37:20;23.70;99.90
18733;DHT22;9495;51.210;2.934;2022-09-02T10:40:09;23.80;99.90
18733;DHT22;9495;51.210;2.934;2022-09-02T10:42:57;23.80;99.90
18733;DHT22;9495;51.210;2.934;2022-09-02T10:45:33;23.80;99.90
18733;DHT22;9495;51.210;2.934;2022-09-02T10:48:15;23.90;99.90
18733;DHT22;9495;51.210;2.934;2022-09-02T10:50:51;23.90;99.90
18733;DHT22;9495;51.210;2.934;2022-09-02T10:53:36;23.90;99.90
18733;DHT22;9495;51.210;2.934;2022-09-02T10:56:08;24.00;99.90
18733;DHT22;9495;51.210;2.934;2022-09-02T10:58:43;24.00;99.90
18733;DHT22;9495;51.210;2.934;2022-09-02T11:01:17;24.00;99.90
18733;DHT22;9495;51.210;2.934;2022-09-02T11:03:57;24.00;99.90
18733;DHT22;9495;51.210;2.934;2022-09-02T11:06:29;24.10;99.90
18733;DHT22;9495;51.210;2.934;2022-09-02T11:09:28;24.20;99.90
18733;DHT22;9495;51.210;2.934;2022-09-02T11:12:03;24.10;99.90
18733;DHT22;9495;51.210;2.934;2022-09-02T11:14:39;24.20;99.90
18733;DHT22;9495;51.210;2.934;2022-09-02T11:17:16;24.20;99.90
18733;DHT22;9495;51.210;2.934;2022-09-02T11:19:50;24.20;99.90
18733;DHT22;9495;51.210;2.934;2022-09-02T11:22:26;24.20;99.90
18733;DHT22;9495;51.210;2.934;2022-09-02T11:25:01;24.30;99.90
18733;DHT22;9495;51.210;2.934;2022-09-02T11:27:35;24.30;99.90
18733;DHT22;9495;51.210;2.934;2022-09-02T11:30:12;24.40;99.90
18733;DHT22;9495;51.210;2.934;2022-09-02T11:32:46;24.40;99.90
18733;DHT22;9495;51.210;2.934;2022-09-02T11:35:19;24.30;99.90
18733;DHT22;9495;51.210;2.934;2022-09-02T11:37:57;24.30;99.90
18733;DHT22;9495;51.210;2.934;2022-09-02T11:40:31;24.40;99.90
18733;DHT22;9495;51.210;2.934;2022-09-02T11:43:21;24.40;99.90
18733;DHT22;9495;51.210;2.934;2022-09-02T11:46:01;24.40;99.90
18733;DHT22;9495;51.210;2.934;2022-09-02T11:49:07;24.40;99.90
18733;DHT22;9495;51.210;2.934;2022-09-02T11:51:57;24.40;99.90
18733;DHT22;9495;51.210;2.934;2022-09-02T11:54:33;24.40;99.90
18733;DHT22;9495;51.210;2.934;2022-09-02T11:57:06;24.60;99.90
18733;DHT22;9495;51.210;2.934;2022-09-02T12:00:00;24.50;99.90
18733;DHT22;9495;51.210;2.934;2022-09-02T12:02:39;24.40;99.90
18733;DHT22;9495;51.210;2.934;2022-09-02T12:05:43;24.50;99.90
18733;DHT22;9495;51.210;2.934;2022-09-02T12:08:13;24.40;99.90
18733;DHT22;9495;51.210;2.934;2022-09-02T12:11:02;24.40;99.90
18733;DHT22;9495;51.210;2.934;2022-09-02T12:13:38;24.40;99.90
18733;DHT22;9495;51.210;2.934;2022-09-02T12:16:36;24.40;99.90
18733;DHT22;9495;51.210;2.934;2022-09-02T12:19:28;24.40;99.90
18733;DHT22;9495;51.210;2.934;2022-09-02T12:22:31;24.40;99.90
18733;DHT22;9495;51.210;2.934;2022-09-02T12:25:00;24.60;99.90
18733;DHT22;9495;51.210;2.934;2022-09-02T12:27:32;24.60;99.90
18733;DHT22;9495;51.210;2.934;2022-09-02T12:30:06;24.60;99.90
18733;DHT22;9495;51.210;2.934;2022-09-02T12:33:09;24.60;99.90
18733;DHT22;9495;51.210;2.934;2022-09-02T12:35:50;24.70;99.90
18733;DHT22;9495;51.210;2.934;2022-09-02T12:38:32;24.90;99.90
18733;DHT22;9495;51.210;2.934;2022-09-02T12:41:18;24.70;99.90
18733;DHT22;9495;51.210;2.934;2022-09-02T12:44:14;24.60;99.90
18733;DHT22;9495;51.210;2.934;2022-09-02T12:47:01;24.60;99.90
18733;DHT22;9495;51.210;2.934;2022-09-02T12:49:42;24.50;99.90
18733;DHT22;9495;51.210;2.934;2022-09-02T12:52:38;24.70;99.90
18733;DHT22;9495;51.210;2.934;2022-09-02T12:55:14;24.60;99.90
18733;DHT22;9495;51.210;2.934;2022-09-02T12:57:44;24.60;99.90
18733;DHT22;9495;51.210;2.934;2022-09-02T13:00:15;24.60;99.90
18733;DHT22;9495;51.210;2.934;2022-09-02T13:02:57;24.60;99.90
18733;DHT22;9495;51.210;2.934;2022-09-02T13:05:30;24.60;99.90
18733;DHT22;9495;51.210;2.934;2022-09-02T13:11:34;24.60;99.90
18733;DHT22;9495;51.210;2.934;2022-09-02T13:14:26;24.60;99.90
18733;DHT22;9495;51.210;2.934;2022-09-02T13:17:20;24.60;99.90
18733;DHT22;9495;51.210;2.934;2022-09-02T13:26:36;24.60;99.90
18733;DHT22;9495;51.210;2.934;2022-09-02T13:32:24;24.70;99.90
18733;DHT22;9495;51.210;2.934;2022-09-02T13:34:56;24.70;99.90
18733;DHT22;9495;51.210;2.934;2022-09-02T13:37:30;24.70;99.90
18733;DHT22;9495;51.210;2.934;2022-09-02T13:40:02;24.70;99.90
18733;DHT22;9495;51.210;2.934;2022-09-02T13:42:32;24.60;99.90
18733;DHT22;9495;51.210;2.934;2022-09-02T13:45:11;24.60;99.90
18733;DHT22;9495;51.210;2.934;2022-09-02T13:47:43;24.60;99.90
18733;DHT22;9495;51.210;2.934;2022-09-02T13:50:14;24.60;99.90
18733;DHT22;9495;51.210;2.934;2022-09-02T13:52:47;24.60;99.90
18733;DHT22;9495;51.210;2.934;2022-09-02T13:55:39;24.70;99.90
18733;DHT22;9495;51.210;2.934;2022-09-02T13:58:31;24.60;99.90
18733;DHT22;9495;51.210;2.934;2022-09-02T14:01:24;24.60;99.90
18733;DHT22;9495;51.210;2.934;2022-09-02T14:03:55;24.70;99.90
18733;DHT22;9495;51.210;2.934;2022-09-02T14:06:27;24.70;99.90
18733;DHT22;9495;51.210;2.934;2022-09-02T14:09:02;24.70;99.90
18733;DHT22;9495;51.210;2.934;2022-09-02T14:11:37;24.70;99.90
18733;DHT22;9495;51.210;2.934;2022-09-02T14:14:08;24.60;99.90
18733;DHT22;9495;51.210;2.934;2022-09-02T14:16:44;24.60;99.90
18733;DHT22;9495;51.210;2.934;2022-09-02T14:19:23;24.90;99.90
18733;DHT22;9495;51.210;2.934;2022-09-02T14:21:53;24.90;99.90
18733;DHT22;9495;51.210;2.934;2022-09-02T14:24:26;25.30;99.90
18733;DHT22;9495;51.210;2.934;2022-09-02T14:26:55;25.10;99.90
18733;DHT22;9495;51.210;2.934;2022-09-02T14:29:27;25.00;99.90
18733;DHT22;9495;51.210;2.934;2022-09-02T14:34:37;25.30;99.90
18733;DHT22;9495;51.210;2.934;2022-09-02T14:37:20;25.00;99.90
18733;DHT22;9495;51.210;2.934;2022-09-02T14:40:03;25.20;99.90
18733;DHT22;9495;51.210;2.934;2022-09-02T14:42:41;25.40;99.90
18733;DHT22;9495;51.210;2.934;2022-09-02T14:45:11;25.60;99.90
18733;DHT22;9495;51.210;2.934;2022-09-02T14:47:40;25.60;99.90
18733;DHT22;9495;51.210;2.934;2022-09-02T14:50:10;25.70;99.90
18733;DHT22;9495;51.210;2.934;2022-09-02T14:52:48;25.60;99.90
18733;DHT22;9495;51.210;2.934;2022-09-02T14:55:41;25.70;99.90
18733;DHT22;9495;51.210;2.934;2022-09-02T14:58:10;25.60;99.90
18733;DHT22;9495;51.210;2.934;2022-09-02T15:00:38;25.50;99.90
18733;DHT22;9495;51.210;2.934;2022-09-02T15:03:07;25.50;99.90
18733;DHT22;9495;51.210;2.934;2022-09-02T15:05:36;25.60;99.90
18733;DHT22;9495;51.210;2.934;2022-09-02T15:08:04;25.60;99.90
18733;DHT22;9495;51.210;2.934;2022-09-02T15:10:33;25.60;99.90
18733;DHT22;9495;51.210;2.934;2022-09-02T15:13:03;25.50;99.90
18733;DHT22;9495;51.210;2.934;2022-09-02T15:15:31;25.60;99.90
18733;DHT22;9495;51.210;2.934;2022-09-02T15:18:00;25.50;99.90
18733;DHT22;9495;51.210;2.934;2022-09-02T15:20:31;25.50;99.90
18733;DHT22;9495;51.210;2.934;2022-09-02T15:23:00;25.50;99.90
18733;DHT22;9495;51.210;2.934;2022-09-02T15:25:29;25.60;99.90
18733;DHT22;9495;51.210;2.934;2022-09-02T15:27:57;25.60;99.90
18733;DHT22;9495;51.210;2.934;2022-09-02T15:30:27;25.50;99.90
18733;DHT22;9495;51.210;2.934;2022-09-02T15:32:56;25.60;99.90
18733;DHT22;9495;51.210;2.934;2022-09-02T15:35:24;25.70;99.90
18733;DHT22;9495;51.210;2.934;2022-09-02T15:37:53;25.70;99.90
18733;DHT22;9495;51.210;2.934;2022-09-02T15:40:22;25.60;99.90
18733;DHT22;9495;51.210;2.934;2022-09-02T15:42:50;25.20;99.90
18733;DHT22;9495;51.210;2.934;2022-09-02T15:45:18;25.00;99.90
18733;DHT22;9495;51.210;2.934;2022-09-02T15:47:48;24.90;99.90
18733;DHT22;9495;51.210;2.934;2022-09-02T15:50:16;24.80;99.90
18733;DHT22;9495;51.210;2.934;2022-09-02T15:52:46;24.90;99.90
18733;DHT22;9495;51.210;2.934;2022-09-02T15:55:15;25.00;99.90
18733;DHT22;9495;51.210;2.934;2022-09-02T15:57:43;24.90;99.90
18733;DHT22;9495;51.210;2.934;2022-09-02T16:00:12;24.90;99.90
18733;DHT22;9495;51.210;2.934;2022-09-02T16:02:41;24.90;99.90
18733;DHT22;9495;51.210;2.934;2022-09-02T16:05:11;24.90;99.90
18733;DHT22;9495;51.210;2.934;2022-09-02T16:07:40;24.90;99.90
18733;DHT22;9495;51.210;2.934;2022-09-02T16:10:09;24.80;99.90
18733;DHT22;9495;51.210;2.934;2022-09-02T16:12:37;24.80;99.90
18733;DHT22;9495;51.210;2.934;2022-09-02T16:15:07;24.80;99.90
18733;DHT22;9495;51.210;2.934;2022-09-02T16:17:35;24.80;99.90
18733;DHT22;9495;51.210;2.934;2022-09-02T16:20:03;24.80;99.90
18733;DHT22;9495;51.210;2.934;2022-09-02T16:22:33;24.80;99.90
18733;DHT22;9495;51.210;2.934;2022-09-02T16:25:02;24.70;99.90
18733;DHT22;9495;51.210;2.934;2022-09-02T16:27:30;24.70;99.90
18733;DHT22;9495;51.210;2.934;2022-09-02T16:30:16;24.80;99.90
18733;DHT22;9495;51.210;2.934;2022-09-02T16:32:45;24.80;99.90
18733;DHT22;9495;51.210;2.934;2022-09-02T16:35:16;24.70;99.90